createdAt,value
2019-03-06T00:01:44.943Z,99875.92
2019-03-06T00:04:15.388Z,99868.91
2019-03-06T00:06:45.864Z,99883.98
2019-03-06T00:09:16.357Z,99881.96
2019-03-06T00:11:46.806Z,99891.73
2019-03-06T00:14:17.407Z,99889.17
2019-03-06T00:16:47.864Z,99889.70
2019-03-06T00:19:18.474Z,99891.25
2019-03-06T00:21:48.966Z,99899.50
2019-03-06T00:24:19.416Z,99892.45
2019-03-06T00:26:49.906Z,99894.74
2019-03-06T00:29:20.525Z,99899.80
2019-03-06T00:31:51.011Z,99891.55
2019-03-06T00:34:21.471Z,99890.11
2019-03-06T00:36:51.975Z,99878.74
2019-03-06T00:39:22.517Z,99863.33
2019-03-06T00:41:54.337Z,99864.88
2019-03-06T00:44:24.797Z,99839.14
2019-03-06T00:46:55.295Z,99841.78
2019-03-06T00:49:25.752Z,99858.67
2019-03-06T00:51:56.424Z,99843.88
2019-03-06T00:54:26.884Z,99825.48
2019-03-06T00:56:57.411Z,99825.76
2019-03-06T00:59:27.844Z,99823.86
2019-03-06T01:01:58.292Z,99821.21
2019-03-06T01:04:28.782Z,99817.95
2019-03-06T01:06:59.285Z,99805.18
2019-03-06T01:09:29.732Z,99804.33
2019-03-06T01:12:00.229Z,99798.24
2019-03-06T01:14:30.967Z,99795.37
2019-03-06T01:17:01.457Z,99794.98
2019-03-06T01:19:32.011Z,99784.94
2019-03-06T01:22:02.469Z,99779.62
2019-03-06T01:24:33.112Z,99789.96
2019-03-06T01:27:03.621Z,99786.95
2019-03-06T01:29:34.077Z,99788.78
2019-03-06T01:32:04.683Z,99786.20
2019-03-06T01:34:52.503Z,99795.65
2019-03-06T01:37:34.128Z,99790.09
2019-03-06T01:40:23.772Z,99787.42
2019-03-06T01:42:58.959Z,99784.35
2019-03-06T01:45:29.457Z,99770.33
2019-03-06T01:47:59.912Z,99772.27
2019-03-06T01:50:30.704Z,99778.16
2019-03-06T01:53:01.170Z,99783.84
2019-03-06T01:55:31.740Z,99787.37
2019-03-06T01:58:02.267Z,99792.27
2019-03-06T02:00:32.803Z,99805.06
2019-03-06T02:03:03.258Z,99798.67
2019-03-06T02:05:33.853Z,99790.05
2019-03-06T02:08:04.516Z,99782.39
2019-03-06T02:10:35.118Z,99783.16
2019-03-06T02:13:07.400Z,99782.75
2019-03-06T02:15:37.903Z,99778.56
2019-03-06T02:18:08.409Z,99782.52
2019-03-06T02:20:38.926Z,99798.66
2019-03-06T02:23:09.440Z,99798.60
2019-03-06T02:25:39.907Z,99801.13
2019-03-06T02:28:10.405Z,99807.62
2019-03-06T02:30:40.984Z,99818.73
2019-03-06T02:33:11.599Z,99820.64
2019-03-06T02:35:42.251Z,99815.28
2019-03-06T02:38:12.774Z,99818.05
2019-03-06T02:40:43.254Z,99811.69
2019-03-06T02:43:13.726Z,99811.20
2019-03-06T02:45:44.270Z,99809.67
2019-03-06T02:48:14.799Z,99808.31
2019-03-06T02:50:45.294Z,99808.09
2019-03-06T02:53:15.757Z,99807.09
2019-03-06T02:55:46.267Z,99806.34
2019-03-06T02:58:26.414Z,99809.73
2019-03-06T03:01:14.200Z,99804.91
2019-03-06T03:04:04.141Z,99804.14
2019-03-06T03:06:38.554Z,99813.53
2019-03-06T03:09:19.708Z,99807.92
2019-03-06T03:11:50.168Z,99819.29
2019-03-06T03:14:20.658Z,99827.91
2019-03-06T03:16:51.253Z,99822.52
2019-03-06T03:19:21.770Z,99834.31
2019-03-06T03:21:52.284Z,99835.72
2019-03-06T03:24:23.026Z,99844.98
2019-03-06T03:26:53.623Z,99836.66
2019-03-06T03:29:24.095Z,99833.59
2019-03-06T03:31:54.585Z,99830.16
2019-03-06T03:34:25.113Z,99828.19
2019-03-06T03:36:55.663Z,99838.81
2019-03-06T03:39:26.264Z,99824.81
2019-03-06T03:41:56.772Z,99831.01
2019-03-06T03:44:27.270Z,99833.13
2019-03-06T03:46:57.771Z,99834.69
2019-03-06T03:49:28.230Z,99834.97
2019-03-06T03:51:58.728Z,99840.67
2019-03-06T03:54:29.203Z,99847.11
2019-03-06T03:56:59.699Z,99847.52
2019-03-06T03:59:30.629Z,99843.88
2019-03-06T04:02:01.257Z,99851.25
2019-03-06T04:04:31.872Z,99855.36
2019-03-06T04:07:02.451Z,99863.22
2019-03-06T04:09:32.923Z,99866.47
2019-03-06T04:12:03.465Z,99874.10
2019-03-06T04:14:33.940Z,99879.05
2019-03-06T04:17:04.489Z,99886.87
2019-03-06T04:19:34.991Z,99885.91
2019-03-06T04:22:05.493Z,99891.53
2019-03-06T04:24:35.998Z,99890.41
2019-03-06T04:27:06.507Z,99888.55
2019-03-06T04:29:36.985Z,99883.62
2019-03-06T04:32:07.482Z,99888.23
2019-03-06T04:34:38.215Z,99884.88
2019-03-06T04:37:08.713Z,99880.38
2019-03-06T04:39:39.214Z,99887.48
2019-03-06T04:42:09.737Z,99887.59
2019-03-06T04:44:40.209Z,99889.00
2019-03-06T04:47:10.716Z,99889.19
2019-03-06T04:49:41.196Z,99892.44
2019-03-06T04:52:11.671Z,99887.35
2019-03-06T04:54:42.183Z,99882.67
2019-03-06T04:57:12.644Z,99878.77
2019-03-06T04:59:43.141Z,99881.94
2019-03-06T05:02:13.638Z,99884.04
2019-03-06T05:04:44.102Z,99892.84
2019-03-06T05:07:14.623Z,99896.05
2019-03-06T05:09:45.088Z,99910.47
2019-03-06T05:12:15.557Z,99908.47
2019-03-06T05:14:46.037Z,99914.98
2019-03-06T05:17:34.022Z,99920.47
2019-03-06T05:20:04.808Z,99921.92
2019-03-06T05:22:35.367Z,99911.98
2019-03-06T05:25:06.043Z,99919.74
2019-03-06T05:27:36.502Z,99926.50
2019-03-06T05:30:07.778Z,99932.78
2019-03-06T05:32:39.029Z,99935.25
2019-03-06T05:35:48.630Z,99828.94
2019-03-06T05:38:41.849Z,99951.42
2019-03-06T05:41:12.343Z,99958.17
2019-03-06T05:43:42.863Z,99962.70
2019-03-06T05:46:13.340Z,99966.58
2019-03-06T05:48:43.945Z,99958.32
2019-03-06T05:51:14.454Z,99954.55
2019-03-06T05:53:44.933Z,99958.20
2019-03-06T05:56:15.392Z,99964.13
2019-03-06T05:58:45.953Z,99959.02
2019-03-06T06:01:16.472Z,99970.11
2019-03-06T06:03:46.964Z,99977.09
2019-03-06T06:06:17.482Z,99981.79
2019-03-06T06:08:48.019Z,99983.88
2019-03-06T06:11:18.492Z,99983.00
2019-03-06T06:13:48.998Z,99977.72
2019-03-06T06:16:19.517Z,99980.20
2019-03-06T06:18:50.307Z,99974.64
2019-03-06T06:21:42.698Z,99963.55
2019-03-06T06:24:16.088Z,99961.18
2019-03-06T06:26:46.600Z,99971.48
2019-03-06T06:29:17.090Z,99969.24
2019-03-06T06:31:47.588Z,99976.18
2019-03-06T06:34:18.405Z,99981.99
2019-03-06T06:36:48.923Z,99990.06
2019-03-06T06:39:19.448Z,99886.59
2019-03-06T06:41:49.997Z,99984.72
2019-03-06T06:44:20.569Z,99995.36
2019-03-06T06:46:51.073Z,99987.48
2019-03-06T06:49:21.629Z,100002.38
2019-03-06T06:52:26.260Z,100001.38
2019-03-06T06:55:28.052Z,100009.85
2019-03-06T06:58:38.666Z,100022.47
2019-03-06T07:01:43.664Z,100028.41
2019-03-06T07:04:53.902Z,100005.19
2019-03-06T07:07:58.429Z,100035.03
2019-03-06T07:10:42.114Z,100033.77
2019-03-06T07:13:40.721Z,99934.86
2019-03-06T07:16:45.105Z,100047.36
2019-03-06T07:19:34.676Z,100035.27
2019-03-06T07:22:22.885Z,100038.66
2019-03-06T07:24:58.944Z,100044.35
2019-03-06T07:27:54.247Z,100037.09
2019-03-06T07:30:33.890Z,100025.91
2019-03-06T07:33:29.495Z,100027.84
2019-03-06T07:36:18.851Z,100027.14
2019-03-06T07:38:58.739Z,100024.44
2019-03-06T07:41:40.709Z,100035.69
2019-03-06T07:44:33.074Z,100026.71
2019-03-06T07:47:11.224Z,99927.61
2019-03-06T07:49:54.518Z,100031.27
2019-03-06T07:52:59.123Z,100026.02
2019-03-06T07:55:45.997Z,100023.81
2019-03-06T07:58:52.943Z,100018.84
2019-03-06T08:01:25.344Z,100006.41
2019-03-06T08:04:16.800Z,100011.77
2019-03-06T08:06:53.229Z,100000.83
2019-03-06T08:09:24.010Z,100009.65
2019-03-06T08:12:19.498Z,100012.68
2019-03-06T08:15:14.685Z,100027.30
2019-03-06T08:17:54.358Z,100036.13
2019-03-06T08:20:52.577Z,100042.56
2019-03-06T08:23:38.556Z,100043.42
2019-03-06T08:26:09.259Z,100048.92
2019-03-06T08:28:39.817Z,100041.59
2019-03-06T08:31:19.204Z,100042.58
2019-03-06T08:33:49.682Z,100042.47
2019-03-06T08:36:20.224Z,100028.88
2019-03-06T08:38:51.216Z,100037.36
2019-03-06T08:41:21.908Z,100037.83
2019-03-06T08:43:52.361Z,100036.70
2019-03-06T08:46:41.710Z,100043.59
2019-03-06T08:49:39.990Z,100042.23
2019-03-06T08:52:28.279Z,100053.67
2019-03-06T08:55:24.050Z,100042.63
2019-03-06T08:58:04.709Z,100049.46
2019-03-06T09:00:49.592Z,100059.04
2019-03-06T09:03:46.958Z,100059.50
2019-03-06T09:06:39.313Z,100060.16
2019-03-06T09:09:27.508Z,100058.05
2019-03-06T09:12:19.831Z,100063.84
2019-03-06T09:15:06.789Z,100062.81
2019-03-06T09:17:46.418Z,100060.14
2019-03-06T09:20:44.623Z,100054.66
2019-03-06T09:23:42.711Z,100059.03
2019-03-06T09:26:38.203Z,100054.70
2019-03-06T09:29:30.383Z,100059.41
2019-03-06T09:32:28.987Z,100060.82
2019-03-06T09:35:10.464Z,100064.92
2019-03-06T09:38:10.986Z,100068.77
2019-03-06T09:40:54.964Z,100066.36
2019-03-06T09:43:48.664Z,100062.75
2019-03-06T09:46:32.001Z,100067.70
2019-03-06T09:49:17.293Z,100068.25
2019-03-06T09:52:05.205Z,100064.45
2019-03-06T09:54:47.368Z,100060.38
2019-03-06T09:57:35.234Z,100062.83
2019-03-06T10:00:17.631Z,100060.64
2019-03-06T10:02:57.109Z,100059.60
2019-03-06T10:05:48.761Z,100061.45
2019-03-06T10:08:37.033Z,100062.02
2019-03-06T10:11:29.454Z,100063.39
2019-03-06T10:14:23.117Z,100065.56
2019-03-06T10:17:18.402Z,100065.60
2019-03-06T10:19:55.342Z,100062.84
2019-03-06T10:22:25.959Z,100055.22
2019-03-06T10:24:56.676Z,100060.44
2019-03-06T10:27:27.130Z,100060.69
2019-03-06T10:29:57.627Z,100057.69
2019-03-06T10:32:28.213Z,100044.25
2019-03-06T10:34:58.716Z,100049.47
2019-03-06T10:37:29.176Z,100050.28
2019-03-06T10:39:59.702Z,100042.33
2019-03-06T10:42:30.201Z,100032.20
2019-03-06T10:45:00.716Z,100030.54
2019-03-06T10:47:31.197Z,100023.41
2019-03-06T10:50:01.712Z,100032.45
2019-03-06T10:52:32.270Z,100023.41
2019-03-06T10:55:02.782Z,100030.23
2019-03-06T10:57:33.385Z,100024.26
2019-03-06T11:00:04.093Z,99927.53
2019-03-06T11:02:34.703Z,100025.89
2019-03-06T11:05:14.616Z,100024.80
2019-03-06T11:07:45.405Z,100019.30
2019-03-06T11:10:23.414Z,100014.36
2019-03-06T11:12:48.558Z,100015.76
2019-03-06T11:15:20.202Z,100022.34
2019-03-06T11:17:51.204Z,100012.20
2019-03-06T11:20:24.817Z,100007.53
2019-03-06T11:22:56.316Z,100004.25
2019-03-06T11:25:27.543Z,100000.41
2019-03-06T11:27:58.458Z,100003.68
2019-03-06T11:30:35.254Z,99999.02
2019-03-06T11:33:08.566Z,99999.33
2019-03-06T11:35:39.297Z,100002.35
2019-03-06T11:38:10.395Z,100002.62
2019-03-06T11:40:41.063Z,99991.38
2019-03-06T11:43:12.081Z,99987.55
2019-03-06T11:45:43.296Z,99990.52
2019-03-06T11:48:14.597Z,99989.47
2019-03-06T11:50:45.366Z,99995.78
2019-03-06T11:53:15.988Z,99988.08
2019-03-06T11:55:46.701Z,99982.31
2019-03-06T11:58:18.767Z,99981.77
2019-03-06T12:00:49.647Z,99977.66
2019-03-06T12:03:21.906Z,99976.56
2019-03-06T12:05:52.775Z,99973.83
2019-03-06T12:08:23.354Z,99971.08
2019-03-06T12:10:54.061Z,99961.78
2019-03-06T12:13:24.592Z,99955.51
2019-03-06T12:15:55.298Z,99955.78
2019-03-06T12:18:26.315Z,99966.73
2019-03-06T12:20:56.978Z,99957.11
2019-03-06T12:23:27.598Z,99968.36
2019-03-06T12:25:58.123Z,99963.97
2019-03-06T12:28:28.576Z,99962.85
2019-03-06T12:30:59.703Z,99959.00
2019-03-06T12:33:30.304Z,99953.25
2019-03-06T12:36:00.776Z,99953.24
2019-03-06T12:38:31.388Z,99950.78
2019-03-06T12:41:02.018Z,99952.42
2019-03-06T12:43:32.875Z,99946.11
2019-03-06T12:46:34.404Z,99940.63
2019-03-06T12:49:09.570Z,99940.35
2019-03-06T12:51:40.189Z,99948.81
2019-03-06T12:54:10.780Z,99944.97
2019-03-06T12:56:41.247Z,99951.25
2019-03-06T12:59:11.925Z,99949.58
2019-03-06T13:01:42.527Z,99954.45
2019-03-06T13:04:13.021Z,99946.77
2019-03-06T13:06:43.623Z,99950.61
2019-03-06T13:09:18.505Z,99956.85
2019-03-06T13:11:49.011Z,99949.69
2019-03-06T13:14:19.634Z,99936.77
2019-03-06T13:16:50.420Z,99926.02
2019-03-06T13:19:21.034Z,99932.32
2019-03-06T13:21:51.645Z,99940.49
2019-03-06T13:24:22.190Z,99939.40
2019-03-06T13:26:53.661Z,99923.45
2019-03-06T13:29:25.789Z,99925.35
2019-03-06T13:31:56.461Z,99926.45
2019-03-06T13:34:30.129Z,99928.05
2019-03-06T13:37:00.724Z,99920.33
2019-03-06T13:39:31.260Z,99925.00
2019-03-06T13:42:01.733Z,99917.80
2019-03-06T13:44:32.303Z,99910.61
2019-03-06T13:47:02.913Z,99921.31
2019-03-06T13:49:33.407Z,99914.16
2019-03-06T13:52:03.996Z,99921.81
2019-03-06T13:54:34.793Z,99929.80
2019-03-06T13:57:05.273Z,99934.13
2019-03-06T13:59:35.795Z,99944.80
2019-03-06T14:02:06.568Z,99927.73
2019-03-06T14:04:37.129Z,99940.87
2019-03-06T14:07:07.733Z,99914.18
2019-03-06T14:09:38.243Z,99932.04
2019-03-06T14:12:08.702Z,99935.29
2019-03-06T14:14:39.245Z,99946.59
2019-03-06T14:17:09.917Z,99948.53
2019-03-06T14:19:40.610Z,99931.79
2019-03-06T14:22:11.209Z,99931.57
2019-03-06T14:24:41.676Z,99922.77
2019-03-06T14:27:12.361Z,99937.41
2019-03-06T14:29:42.928Z,99928.45
2019-03-06T14:32:15.090Z,99934.77
2019-03-06T14:34:45.879Z,99944.94
2019-03-06T14:37:16.538Z,99946.61
2019-03-06T14:39:47.062Z,99940.37
2019-03-06T14:42:17.751Z,99941.40
2019-03-06T14:44:48.314Z,99942.30
2019-03-06T14:47:19.584Z,99941.14
2019-03-06T14:49:50.051Z,99943.13
2019-03-06T14:52:20.628Z,99950.22
2019-03-06T14:54:51.216Z,99957.41
2019-03-06T14:57:21.717Z,99953.83
2019-03-06T14:59:52.475Z,99962.65
2019-03-06T15:02:22.981Z,99966.77
2019-03-06T15:04:53.544Z,99969.58
2019-03-06T15:07:24.011Z,99969.00
2019-03-06T15:09:54.802Z,99985.00
2019-03-06T15:12:25.404Z,99980.84
2019-03-06T15:14:55.883Z,99989.64
2019-03-06T15:17:26.819Z,99982.24
2019-03-06T15:19:57.421Z,99995.43
2019-03-06T15:22:27.976Z,99993.30
2019-03-06T15:24:58.512Z,100000.16
2019-03-06T15:27:29.110Z,99996.09
2019-03-06T15:29:59.643Z,100002.69
2019-03-06T15:32:30.241Z,100012.58
2019-03-06T15:35:00.837Z,100013.41
2019-03-06T15:37:31.538Z,100013.94
2019-03-06T15:40:02.160Z,100016.44
2019-03-06T15:42:32.902Z,100010.94
2019-03-06T15:45:03.525Z,100010.69
2019-03-06T15:47:34.108Z,100023.87
2019-03-06T15:50:05.129Z,100032.94
2019-03-06T15:52:35.730Z,100032.40
2019-03-06T15:55:07.084Z,100036.23
2019-03-06T15:57:37.593Z,100030.78
2019-03-06T16:00:17.383Z,100035.16
2019-03-06T16:02:48.352Z,100038.45
2019-03-06T16:05:19.697Z,100044.22
2019-03-06T16:07:50.230Z,100053.28
2019-03-06T16:10:20.822Z,100051.12
2019-03-06T16:12:51.328Z,100056.03
2019-03-06T16:15:22.268Z,100060.98
2019-03-06T16:17:52.779Z,100065.61
2019-03-06T16:20:23.568Z,100071.10
2019-03-06T16:22:54.174Z,100081.75
2019-03-06T16:25:25.292Z,100077.33
2019-03-06T16:27:56.769Z,100081.16
2019-03-06T16:30:28.289Z,100096.77
2019-03-06T16:32:59.025Z,100097.84
2019-03-06T16:35:29.678Z,100106.28
2019-03-06T16:38:00.284Z,100114.76
2019-03-06T16:40:31.344Z,100111.75
2019-03-06T16:43:01.859Z,100126.51
2019-03-06T16:45:32.415Z,100136.08
2019-03-06T16:48:03.074Z,100140.95
2019-03-06T16:50:33.688Z,100137.34
2019-03-06T16:53:04.714Z,100144.38
2019-03-06T16:55:35.400Z,100143.80
2019-03-06T16:58:05.961Z,100153.50
2019-03-06T17:00:37.084Z,100168.16
2019-03-06T17:03:07.840Z,100162.37
2019-03-06T17:05:38.980Z,100169.97
2019-03-06T17:08:09.740Z,100178.08
2019-03-06T17:10:40.244Z,100181.26
2019-03-06T17:13:10.709Z,100184.95
2019-03-06T17:15:41.275Z,100191.14
2019-03-06T17:18:11.981Z,100191.54
2019-03-06T17:20:42.549Z,100187.80
2019-03-06T17:23:13.052Z,100202.14
2019-03-06T17:25:43.626Z,100203.89
2019-03-06T17:28:14.338Z,100204.00
2019-03-06T17:30:44.948Z,100151.05
2019-03-06T17:33:15.784Z,100207.65
2019-03-06T17:35:46.408Z,100214.35
2019-03-06T17:38:17.084Z,100219.69
2019-03-06T17:40:47.813Z,100218.47
2019-03-06T17:43:18.322Z,100228.47
2019-03-06T17:45:48.933Z,100224.27
2019-03-06T17:48:19.612Z,100234.47
2019-03-06T17:50:50.186Z,100246.33
2019-03-06T17:53:20.898Z,100234.80
2019-03-06T17:55:51.453Z,100244.00
2019-03-06T17:58:22.226Z,100243.63
2019-03-06T18:00:56.440Z,100248.42
2019-03-06T18:03:36.339Z,100247.73
2019-03-06T18:06:06.840Z,100251.97
2019-03-06T18:08:37.581Z,100261.08
2019-03-06T18:11:08.193Z,100262.94
2019-03-06T18:13:38.645Z,100269.64
2019-03-06T18:16:09.141Z,100267.64
2019-03-06T18:18:39.609Z,100271.34
2019-03-06T18:21:10.118Z,100279.42
2019-03-06T18:23:40.587Z,100272.80
2019-03-06T18:26:11.192Z,100279.44
2019-03-06T18:28:41.872Z,100286.44
2019-03-06T18:31:12.473Z,100289.06
2019-03-06T18:33:43.069Z,100291.66
2019-03-06T18:36:13.711Z,100297.28
2019-03-06T18:38:44.216Z,100292.02
2019-03-06T18:41:14.686Z,100305.22
2019-03-06T18:43:45.154Z,100304.58
2019-03-06T18:46:15.643Z,100302.69
2019-03-06T18:48:46.212Z,100308.98
2019-03-06T18:51:16.816Z,100304.13
2019-03-06T18:53:47.319Z,100311.28
2019-03-06T18:56:17.862Z,100310.02
2019-03-06T18:58:48.330Z,100314.09
2019-03-06T19:01:18.834Z,100316.31
2019-03-06T19:03:49.293Z,100318.67
2019-03-06T19:06:20.891Z,100316.13
2019-03-06T19:08:51.423Z,100316.13
2019-03-06T19:11:22.013Z,100318.40
2019-03-06T19:13:52.489Z,100315.91
2019-03-06T19:16:23.143Z,100318.87
2019-03-06T19:18:53.642Z,100323.73
2019-03-06T19:21:24.208Z,100329.63
2019-03-06T19:23:54.726Z,100331.16
2019-03-06T19:26:25.333Z,100334.21
2019-03-06T19:28:55.967Z,100331.06
2019-03-06T19:31:26.470Z,100338.88
2019-03-06T19:33:56.942Z,100341.17
2019-03-06T19:36:27.565Z,100353.80
2019-03-06T19:38:58.062Z,100350.65
2019-03-06T19:41:28.661Z,100350.53
2019-03-06T19:44:01.040Z,100349.78
2019-03-06T19:46:31.371Z,100353.89
2019-03-06T19:49:01.883Z,100359.48
2019-03-06T19:51:32.464Z,100362.36
2019-03-06T19:54:03.064Z,100364.64
2019-03-06T19:56:33.838Z,100367.23
2019-03-06T19:59:04.477Z,100366.53
2019-03-06T20:01:34.946Z,100369.94
2019-03-06T20:04:05.611Z,100368.45
2019-03-06T20:06:36.306Z,100369.14
2019-03-06T20:09:26.040Z,100360.83
2019-03-06T20:11:57.199Z,100366.41
2019-03-06T20:14:27.705Z,100364.91
2019-03-06T20:16:58.359Z,100365.89
2019-03-06T20:19:28.823Z,100370.11
2019-03-06T20:21:59.336Z,100362.11
2019-03-06T20:24:29.908Z,100365.70
2019-03-06T20:27:00.518Z,100363.28
2019-03-06T20:29:31.030Z,100374.28
2019-03-06T20:32:01.540Z,100374.28
2019-03-06T20:34:32.295Z,100374.42
2019-03-06T20:37:02.797Z,100375.92
2019-03-06T20:39:33.270Z,100371.70
2019-03-06T20:42:03.785Z,100374.23
2019-03-06T20:44:34.321Z,100374.09
2019-03-06T20:47:04.888Z,100380.77
2019-03-06T20:49:35.345Z,100389.89
2019-03-06T20:52:05.970Z,100393.77
2019-03-06T20:54:36.476Z,100397.98
2019-03-06T20:57:06.988Z,100407.92
2019-03-06T20:59:37.450Z,100393.14
2019-03-06T21:02:08.053Z,100392.21
2019-03-06T21:04:38.558Z,100391.02
2019-03-06T21:07:09.054Z,100394.69
2019-03-06T21:09:39.519Z,100397.00
2019-03-06T21:12:09.983Z,100394.42
2019-03-06T21:14:40.432Z,100393.20
2019-03-06T21:17:10.990Z,100393.94
2019-03-06T21:19:41.500Z,100395.42
2019-03-06T21:22:11.982Z,100397.52
2019-03-06T21:24:42.459Z,100393.21
2019-03-06T21:27:12.920Z,100386.77
2019-03-06T21:29:43.411Z,100385.84
2019-03-06T21:32:13.914Z,100387.97
2019-03-06T21:34:44.661Z,100387.35
2019-03-06T21:37:15.165Z,100387.23
2019-03-06T21:39:45.637Z,100393.64
2019-03-06T21:42:16.091Z,100393.52
2019-03-06T21:44:46.553Z,100396.14
2019-03-06T21:47:17.053Z,100397.20
2019-03-06T21:49:47.737Z,100388.14
2019-03-06T21:52:18.195Z,100386.41
2019-03-06T21:54:48.696Z,100393.39
2019-03-06T21:57:19.158Z,100395.27
2019-03-06T21:59:49.670Z,100396.09
2019-03-06T22:02:20.133Z,100392.33
2019-03-06T22:04:50.643Z,100386.63
2019-03-06T22:07:21.121Z,100384.20
2019-03-06T22:09:51.628Z,100386.00
2019-03-06T22:12:22.106Z,100265.23
2019-03-06T22:14:52.664Z,100385.68
2019-03-06T22:17:23.138Z,100381.62
2019-03-06T22:19:53.607Z,100385.19
2019-03-06T22:22:24.182Z,100383.30
2019-03-06T22:24:54.643Z,100388.72
2019-03-06T22:27:25.108Z,100389.74
2019-03-06T22:29:55.787Z,100390.36
2019-03-06T22:32:26.378Z,100381.94
2019-03-06T22:34:56.837Z,100385.56
2019-03-06T22:37:27.339Z,100383.17
2019-03-06T22:39:57.803Z,100391.59
2019-03-06T22:42:28.278Z,100389.29
2019-03-06T22:44:58.805Z,100390.73
2019-03-06T22:47:29.273Z,100392.08
2019-03-06T22:49:59.739Z,100398.69
2019-03-06T22:52:30.268Z,100410.64
2019-03-06T22:55:00.776Z,100414.38
2019-03-06T22:57:31.224Z,100424.36
2019-03-06T23:00:01.730Z,100426.00
2019-03-06T23:02:32.230Z,100445.28
2019-03-06T23:05:03.202Z,100447.81
2019-03-06T23:07:33.673Z,100450.11
2019-03-06T23:10:04.221Z,100454.89
2019-03-06T23:12:34.701Z,100449.73
2019-03-06T23:15:05.269Z,100450.80
2019-03-06T23:17:35.759Z,100451.31
2019-03-06T23:20:06.955Z,100457.16
2019-03-06T23:22:37.540Z,100453.63
2019-03-06T23:25:08.213Z,100455.60
2019-03-06T23:27:38.694Z,100447.38
2019-03-06T23:30:10.627Z,100444.43
2019-03-06T23:32:41.182Z,100448.59
2019-03-06T23:35:11.748Z,100454.02
2019-03-06T23:37:42.241Z,100454.65
2019-03-06T23:40:13.008Z,100460.05
2019-03-06T23:42:43.688Z,100461.09
2019-03-06T23:45:14.359Z,100465.78
2019-03-06T23:47:45.031Z,100465.34
2019-03-06T23:50:15.731Z,100476.82
2019-03-06T23:53:02.410Z,100464.83
2019-03-06T23:55:33.096Z,100464.83
2019-03-06T23:58:03.758Z,100463.37
